createdAt,value
2023-08-02T00:01:54.248Z,61.08
2023-08-02T00:04:23.428Z,60.93
2023-08-02T00:06:51.344Z,61.01
2023-08-02T00:09:19.126Z,61.08
2023-08-02T00:11:46.881Z,61.01
2023-08-02T00:14:14.603Z,61.13
2023-08-02T00:16:42.561Z,61.08
2023-08-02T00:19:10.602Z,61.24
2023-08-02T00:21:39.886Z,61.13
2023-08-02T00:24:07.656Z,61.35
2023-08-02T00:26:35.489Z,61.23
2023-08-02T00:29:03.398Z,61.16
2023-08-02T00:31:31.264Z,61.13
2023-08-02T00:33:59.038Z,61.12
2023-08-02T00:36:26.844Z,61.24
2023-08-02T00:38:58.157Z,61.08
2023-08-02T00:41:25.878Z,61.12
2023-08-02T00:43:53.624Z,61.27
2023-08-02T00:46:22.038Z,61.19
2023-08-02T00:48:50.176Z,61.05
2023-08-02T00:51:18.896Z,61.22
2023-08-02T00:53:47.532Z,61.22
2023-08-02T00:56:17.584Z,61.05
2023-08-02T00:58:45.739Z,61.21
2023-08-02T01:01:13.577Z,61.15
2023-08-02T01:03:43.199Z,61.36
2023-08-02T01:06:17.446Z,61.43
2023-08-02T01:08:48.486Z,61.31
2023-08-02T01:11:22.313Z,61.15
2023-08-02T01:13:52.458Z,61.35
2023-08-02T01:16:21.778Z,61.40
2023-08-02T01:18:49.588Z,61.35
2023-08-02T01:21:18.743Z,61.46
2023-08-02T01:23:46.689Z,61.47
2023-08-02T01:26:15.673Z,61.53
2023-08-02T01:28:47.205Z,61.60
2023-08-02T01:31:17.682Z,61.56
2023-08-02T01:33:50.935Z,61.40
2023-08-02T01:36:20.782Z,61.57
2023-08-02T01:38:48.616Z,61.36
2023-08-02T01:41:16.413Z,61.38
2023-08-02T01:43:44.198Z,61.56
2023-08-02T01:46:11.985Z,61.57
2023-08-02T01:48:39.786Z,61.67
2023-08-02T01:51:07.653Z,61.77
2023-08-02T01:53:36.827Z,61.75
2023-08-02T01:56:04.672Z,61.58
2023-08-02T01:58:32.450Z,61.70
2023-08-02T02:01:00.283Z,61.57
2023-08-02T02:03:28.237Z,61.69
2023-08-02T02:05:56.863Z,61.61
2023-08-02T02:08:25.032Z,61.53
2023-08-02T02:10:55.811Z,61.88
2023-08-02T02:13:25.871Z,61.66
2023-08-02T02:15:53.729Z,61.76
2023-08-02T02:18:21.512Z,61.79
2023-08-02T02:20:49.265Z,61.84
2023-08-02T02:23:17.053Z,62.01
2023-08-02T02:25:45.026Z,62.01
2023-08-02T02:28:14.169Z,61.95
2023-08-02T02:30:44.161Z,62.15
2023-08-02T02:33:11.991Z,62.08
2023-08-02T02:35:39.802Z,62.11
2023-08-02T02:38:07.580Z,61.80
2023-08-02T02:40:35.335Z,62.21
2023-08-02T02:43:03.059Z,62.25
2023-08-02T02:45:32.232Z,62.20
2023-08-02T02:48:00.012Z,62.07
2023-08-02T02:50:27.861Z,62.03
2023-08-02T02:52:55.603Z,62.02
2023-08-02T02:55:23.342Z,62.23
2023-08-02T02:57:51.988Z,62.40
2023-08-02T03:00:19.790Z,62.39
2023-08-02T03:02:48.974Z,62.34
2023-08-02T03:05:16.901Z,62.45
2023-08-02T03:07:44.676Z,62.31
2023-08-02T03:10:12.395Z,62.48
2023-08-02T03:12:40.152Z,62.53
2023-08-02T03:15:09.471Z,62.48
2023-08-02T03:17:37.204Z,62.53
2023-08-02T03:20:07.763Z,62.60
2023-08-02T03:22:35.858Z,62.73
2023-08-02T03:25:03.630Z,62.87
2023-08-02T03:27:31.397Z,62.77
2023-08-02T03:29:59.138Z,62.92
2023-08-02T03:32:26.973Z,62.90
2023-08-02T03:34:54.780Z,62.88
2023-08-02T03:37:23.979Z,62.82
2023-08-02T03:39:51.714Z,62.65
2023-08-02T03:42:19.463Z,62.90
2023-08-02T03:44:47.237Z,62.86
2023-08-02T03:47:14.987Z,62.71
2023-08-02T03:49:42.770Z,62.99
2023-08-02T03:52:10.535Z,62.70
2023-08-02T03:54:39.721Z,63.09
2023-08-02T03:57:08.324Z,62.79
2023-08-02T03:59:36.172Z,62.82
2023-08-02T04:02:04.077Z,62.91
2023-08-02T04:04:31.881Z,63.24
2023-08-02T04:06:59.676Z,62.95
2023-08-02T04:09:27.422Z,63.09
2023-08-02T04:11:56.483Z,63.20
2023-08-02T04:14:24.237Z,63.17
2023-08-02T04:16:52.016Z,63.21
2023-08-02T04:19:19.796Z,63.39
2023-08-02T04:21:47.578Z,62.99
2023-08-02T04:24:15.345Z,63.26
2023-08-02T04:26:43.463Z,63.36
2023-08-02T04:29:12.729Z,63.54
2023-08-02T04:31:40.605Z,63.66
2023-08-02T04:34:08.391Z,63.50
2023-08-02T04:36:36.214Z,63.55
2023-08-02T04:39:05.109Z,63.58
2023-08-02T04:41:32.871Z,63.63
2023-08-02T04:44:00.617Z,63.59
2023-08-02T04:46:30.667Z,63.85
2023-08-02T04:48:58.576Z,63.46
2023-08-02T04:51:26.506Z,63.99
2023-08-02T04:53:54.308Z,63.94
2023-08-02T04:56:22.037Z,63.75
2023-08-02T04:58:49.771Z,63.08
2023-08-02T05:01:17.589Z,63.38
2023-08-02T05:03:46.804Z,63.53
2023-08-02T05:06:14.532Z,64.22
2023-08-02T05:08:42.367Z,64.05
2023-08-02T05:11:10.458Z,64.24
2023-08-02T05:13:38.259Z,64.24
2023-08-02T05:16:06.545Z,64.28
2023-08-02T05:18:34.411Z,64.21
2023-08-02T05:21:03.520Z,64.29
2023-08-02T05:23:31.297Z,64.45
2023-08-02T05:26:05.205Z,64.53
2023-08-02T05:28:32.953Z,64.53
2023-08-02T05:31:00.720Z,64.53
2023-08-02T05:33:28.553Z,64.98
2023-08-02T05:35:56.301Z,65.36
2023-08-02T05:38:25.384Z,64.70
2023-08-02T05:40:53.230Z,65.00
2023-08-02T05:43:20.968Z,65.16
2023-08-02T05:45:53.793Z,65.30
2023-08-02T05:48:21.594Z,65.29
2023-08-02T05:50:49.377Z,65.46
2023-08-02T05:53:17.188Z,65.26
2023-08-02T05:55:46.281Z,65.92
2023-08-02T05:58:14.065Z,65.29
2023-08-02T06:00:41.835Z,65.49
2023-08-02T06:03:09.658Z,65.25
2023-08-02T06:05:37.433Z,65.50
2023-08-02T06:08:05.391Z,65.42
2023-08-02T06:10:33.184Z,65.53
2023-08-02T06:13:02.276Z,66.09
2023-08-02T06:15:30.407Z,66.42
2023-08-02T06:17:58.292Z,65.24
2023-08-02T06:20:26.189Z,66.30
2023-08-02T06:22:53.905Z,66.08
2023-08-02T06:25:21.667Z,65.91
2023-08-02T06:27:49.453Z,65.76
2023-08-02T06:30:18.546Z,65.58
2023-08-02T06:32:46.386Z,66.05
2023-08-02T06:35:14.358Z,66.12
2023-08-02T06:37:42.109Z,66.13
2023-08-02T06:40:11.762Z,66.47
2023-08-02T06:42:39.582Z,66.09
2023-08-02T06:45:08.544Z,66.54
2023-08-02T06:47:37.693Z,66.64
2023-08-02T06:50:06.307Z,66.75
2023-08-02T06:52:34.052Z,66.26
2023-08-02T06:55:01.973Z,66.22
2023-08-02T06:57:32.403Z,66.05
2023-08-02T07:00:00.291Z,66.01
2023-08-02T07:02:28.127Z,65.93
2023-08-02T07:04:57.483Z,66.46
2023-08-02T07:07:25.272Z,66.39
2023-08-02T07:09:53.017Z,65.87
2023-08-02T07:12:20.757Z,65.59
2023-08-02T07:14:48.503Z,65.99
2023-08-02T07:17:16.265Z,66.02
2023-08-02T07:19:44.039Z,65.82
2023-08-02T07:22:18.500Z,66.36
2023-08-02T07:24:46.438Z,65.87
2023-08-02T07:27:14.314Z,66.30
2023-08-02T07:29:42.102Z,66.67
2023-08-02T07:32:10.762Z,66.92
2023-08-02T07:34:38.562Z,66.89
2023-08-02T07:37:06.984Z,66.71
2023-08-02T07:39:36.141Z,67.08
2023-08-02T07:42:03.886Z,67.15
2023-08-02T07:44:31.890Z,67.37
2023-08-02T07:46:59.709Z,67.78
2023-08-02T07:49:27.466Z,67.62
2023-08-02T07:51:56.436Z,67.26
2023-08-02T07:54:24.314Z,67.18
2023-08-02T07:56:53.412Z,67.39
2023-08-02T07:59:21.190Z,67.22
2023-08-02T08:01:49.024Z,67.53
2023-08-02T08:04:16.825Z,67.51
2023-08-02T08:06:48.593Z,69.00
2023-08-02T08:09:21.636Z,68.03
2023-08-02T08:11:49.393Z,68.37
2023-08-02T08:14:18.521Z,67.94
2023-08-02T08:16:46.356Z,67.99
2023-08-02T08:19:14.203Z,67.73
2023-08-02T08:21:42.206Z,67.80
2023-08-02T08:24:11.515Z,67.95
2023-08-02T08:26:39.320Z,68.41
2023-08-02T08:29:07.078Z,68.26
2023-08-02T08:31:36.237Z,67.81
2023-08-02T08:34:04.293Z,68.08
2023-08-02T08:36:32.528Z,67.67
2023-08-02T08:39:00.360Z,68.13
2023-08-02T08:41:28.252Z,68.53
2023-08-02T08:43:56.066Z,67.99
2023-08-02T08:46:25.422Z,68.13
2023-08-02T08:48:54.543Z,68.84
2023-08-02T08:51:24.196Z,68.72
2023-08-02T08:53:53.105Z,68.91
2023-08-02T08:56:25.128Z,68.76
2023-08-02T08:58:54.264Z,69.01
2023-08-02T09:01:22.970Z,68.88
2023-08-02T09:03:50.812Z,69.12
2023-08-02T09:06:20.034Z,69.19
2023-08-02T09:08:49.488Z,69.23
2023-08-02T09:11:17.799Z,68.96
2023-08-02T09:13:45.833Z,68.90
2023-08-02T09:16:15.072Z,68.38
2023-08-02T09:18:44.812Z,68.82
2023-08-02T09:21:15.567Z,68.64
2023-08-02T09:23:49.466Z,68.53
2023-08-02T09:26:18.978Z,68.75
2023-08-02T09:29:00.706Z,68.35
2023-08-02T09:31:29.648Z,69.10
2023-08-02T09:33:58.260Z,67.57
2023-08-02T09:36:28.328Z,68.64
2023-08-02T09:39:04.218Z,68.87
2023-08-02T09:41:52.199Z,68.24
2023-08-02T09:44:22.372Z,68.38
2023-08-02T09:46:50.412Z,68.48
2023-08-02T09:49:19.741Z,68.59
2023-08-02T09:51:48.058Z,68.76
2023-08-02T09:54:17.758Z,69.11
2023-08-02T09:56:45.818Z,68.82
2023-08-02T09:59:14.646Z,68.89
2023-08-02T10:01:43.237Z,68.97
2023-08-02T10:04:12.381Z,70.14
2023-08-02T10:06:45.625Z,70.30
2023-08-02T10:09:17.780Z,70.43
2023-08-02T10:11:55.705Z,70.62
2023-08-02T10:14:25.135Z,70.16
2023-08-02T10:16:53.857Z,70.22
2023-08-02T10:19:22.596Z,70.10
2023-08-02T10:21:51.849Z,70.62
2023-08-02T10:24:20.159Z,71.00
2023-08-02T10:26:49.477Z,71.20
2023-08-02T10:29:17.714Z,71.17
2023-08-02T10:31:45.567Z,71.08
2023-08-02T10:34:47.354Z,71.24
2023-08-02T10:37:15.555Z,71.25
2023-08-02T10:39:58.517Z,71.42
2023-08-02T10:42:31.353Z,71.61
2023-08-02T10:45:16.461Z,71.50
2023-08-02T10:47:44.812Z,71.57
2023-08-02T10:50:49.916Z,71.08
2023-08-02T10:53:18.056Z,71.11
2023-08-02T10:56:06.410Z,71.37
2023-08-02T10:58:49.392Z,71.29
2023-08-02T11:01:17.844Z,71.21
2023-08-02T11:03:45.988Z,70.79
2023-08-02T11:06:27.725Z,71.09
2023-08-02T11:08:55.763Z,70.89
2023-08-02T11:11:34.572Z,71.06
2023-08-02T11:14:03.914Z,71.23
2023-08-02T11:19:02.842Z,71.71
2023-08-02T11:21:30.804Z,71.59
2023-08-02T11:24:02.554Z,72.87
2023-08-02T11:26:55.916Z,74.02
2023-08-02T11:29:21.366Z,74.62
2023-08-02T11:31:49.614Z,75.47
2023-08-02T11:34:20.299Z,76.20
2023-08-02T11:36:50.495Z,75.22
2023-08-02T11:39:19.180Z,75.57
2023-08-02T11:41:46.981Z,75.94
2023-08-02T11:44:20.544Z,76.33
2023-08-02T11:46:55.181Z,76.79
2023-08-02T11:49:23.039Z,76.40
2023-08-02T11:51:50.969Z,76.34
2023-08-02T11:54:19.125Z,75.67
2023-08-02T11:56:47.362Z,75.72
2023-08-02T11:59:15.864Z,75.45
2023-08-02T12:01:45.131Z,75.38
2023-08-02T12:04:13.034Z,75.61
2023-08-02T12:06:49.093Z,74.75
2023-08-02T12:09:17.795Z,74.77
2023-08-02T12:11:46.048Z,74.49
2023-08-02T12:14:13.899Z,74.82
2023-08-02T12:16:43.256Z,74.33
2023-08-02T12:19:13.243Z,73.83
2023-08-02T12:21:44.612Z,73.95
2023-08-02T12:24:16.076Z,73.83
2023-08-02T12:26:44.466Z,73.68
2023-08-02T12:29:23.019Z,73.34
2023-08-02T12:31:50.868Z,72.80
2023-08-02T12:34:20.039Z,72.68
2023-08-02T12:36:49.292Z,72.61
2023-08-02T12:39:17.023Z,72.14
2023-08-02T12:41:46.095Z,71.57
2023-08-02T12:44:13.878Z,71.00
2023-08-02T12:46:41.969Z,70.55
2023-08-02T12:49:09.965Z,69.75
2023-08-02T12:51:39.825Z,70.24
2023-08-02T12:54:07.934Z,69.89
2023-08-02T12:56:35.688Z,68.96
2023-08-02T12:59:03.436Z,68.84
2023-08-02T13:01:33.112Z,69.24
2023-08-02T13:04:02.590Z,69.09
2023-08-02T13:06:30.502Z,67.53
2023-08-02T13:08:59.623Z,67.21
2023-08-02T13:11:28.234Z,67.53
2023-08-02T13:13:56.002Z,66.48
2023-08-02T13:16:23.906Z,67.24
2023-08-02T13:18:51.677Z,67.11
2023-08-02T13:21:20.873Z,67.52
2023-08-02T13:23:48.974Z,67.63
2023-08-02T13:26:18.093Z,67.53
2023-08-02T13:28:45.908Z,66.77
2023-08-02T13:31:13.706Z,65.72
2023-08-02T13:33:42.768Z,64.87
2023-08-02T13:36:10.633Z,63.97
2023-08-02T13:38:38.494Z,64.01
2023-08-02T13:41:06.283Z,64.46
2023-08-02T13:43:35.353Z,63.97
2023-08-02T13:46:03.175Z,63.25
2023-08-02T13:48:31.032Z,62.33
2023-08-02T13:50:58.817Z,61.01
2023-08-02T13:53:26.552Z,61.96
2023-08-02T13:55:54.259Z,61.59
2023-08-02T13:58:22.039Z,61.77
2023-08-02T14:00:51.190Z,61.90
2023-08-02T14:03:18.926Z,62.44
2023-08-02T14:05:46.703Z,62.54
2023-08-02T14:08:14.441Z,61.04
2023-08-02T14:10:45.867Z,61.54
2023-08-02T14:13:13.767Z,60.76
2023-08-02T14:15:41.553Z,60.57
2023-08-02T14:18:10.791Z,60.76
2023-08-02T14:20:38.667Z,61.27
2023-08-02T14:23:06.440Z,61.15
2023-08-02T14:25:34.207Z,61.32
2023-08-02T14:28:01.975Z,61.77
2023-08-02T14:30:29.810Z,61.27
2023-08-02T14:32:57.629Z,60.60
2023-08-02T14:35:26.805Z,61.30
2023-08-02T14:37:54.600Z,60.11
2023-08-02T14:40:22.590Z,59.33
2023-08-02T14:42:50.368Z,59.38
2023-08-02T14:45:18.166Z,59.18
2023-08-02T14:47:46.010Z,58.60
2023-08-02T14:50:13.780Z,58.60
2023-08-02T14:52:42.888Z,59.52
2023-08-02T14:55:10.861Z,59.31
2023-08-02T14:57:38.703Z,59.71
2023-08-02T15:00:07.592Z,59.78
2023-08-02T15:02:36.811Z,60.55
2023-08-02T15:05:05.113Z,59.95
2023-08-02T15:07:32.880Z,59.88
2023-08-02T15:10:01.950Z,60.41
2023-08-02T15:12:29.702Z,59.61
2023-08-02T15:14:57.500Z,59.46
2023-08-02T15:17:25.306Z,59.50
2023-08-02T15:19:53.094Z,59.06
2023-08-02T15:22:20.914Z,59.33
2023-08-02T15:24:48.719Z,59.43
2023-08-02T15:27:17.888Z,60.29
2023-08-02T15:29:45.638Z,60.59
2023-08-02T15:32:13.449Z,61.10
2023-08-02T15:34:41.280Z,61.31
2023-08-02T15:37:09.022Z,61.26
2023-08-02T15:39:36.754Z,60.96
2023-08-02T15:42:05.061Z,60.90
2023-08-02T15:44:34.219Z,60.30
2023-08-02T15:47:02.186Z,60.35
2023-08-02T15:49:30.293Z,60.56
2023-08-02T15:51:58.059Z,60.38
2023-08-02T15:54:25.834Z,60.30
2023-08-02T15:56:53.638Z,60.73
2023-08-02T15:59:21.460Z,59.89
2023-08-02T16:01:50.851Z,59.45
2023-08-02T16:04:18.660Z,60.20
2023-08-02T16:06:47.211Z,60.45
2023-08-02T16:09:15.709Z,60.38
2023-08-02T16:11:43.583Z,59.91
2023-08-02T16:14:11.312Z,59.81
2023-08-02T16:16:39.239Z,59.35
2023-08-02T16:19:08.449Z,58.89
2023-08-02T16:21:36.205Z,58.86
2023-08-02T16:24:03.994Z,58.85
2023-08-02T16:26:31.801Z,58.40
2023-08-02T16:28:59.552Z,58.54
2023-08-02T16:31:27.360Z,58.92
2023-08-02T16:33:55.193Z,58.50
2023-08-02T16:36:24.301Z,58.58
2023-08-02T16:38:52.043Z,58.67
2023-08-02T16:41:19.981Z,58.60
2023-08-02T16:43:47.711Z,58.72
2023-08-02T16:46:15.544Z,58.59
2023-08-02T16:48:43.443Z,58.80
2023-08-02T16:51:11.276Z,58.87
2023-08-02T16:53:40.393Z,59.23
2023-08-02T16:56:08.157Z,59.04
2023-08-02T16:58:35.902Z,59.12
2023-08-02T17:01:03.676Z,59.51
2023-08-02T17:03:31.617Z,59.43
2023-08-02T17:05:59.398Z,59.76
2023-08-02T17:08:27.180Z,60.07
2023-08-02T17:10:56.288Z,60.23
2023-08-02T17:13:24.068Z,60.51
2023-08-02T17:15:51.854Z,61.18
2023-08-02T17:18:19.618Z,60.64
2023-08-02T17:20:47.355Z,60.76
2023-08-02T17:23:15.134Z,60.93
2023-08-02T17:25:42.924Z,61.65
2023-08-02T17:28:12.065Z,61.01
2023-08-02T17:30:39.988Z,61.17
2023-08-02T17:33:07.899Z,61.47
2023-08-02T17:35:35.684Z,61.86
2023-08-02T17:38:04.817Z,61.48
2023-08-02T17:40:32.670Z,62.40
2023-08-02T17:43:00.413Z,62.05
2023-08-02T17:45:32.588Z,62.21
2023-08-02T17:48:00.535Z,61.47
2023-08-02T17:50:28.304Z,61.51
2023-08-02T17:52:56.113Z,61.80
2023-08-02T17:55:24.320Z,61.98
2023-08-02T17:57:52.067Z,62.01
2023-08-02T18:00:26.299Z,62.09
2023-08-02T18:02:55.676Z,62.36
2023-08-02T18:05:23.706Z,62.24
2023-08-02T18:07:53.007Z,62.45
2023-08-02T18:10:21.645Z,62.56
2023-08-02T18:12:49.495Z,62.52
2023-08-02T18:15:17.332Z,62.74
2023-08-02T18:17:45.683Z,62.71
2023-08-02T18:20:15.128Z,62.89
2023-08-02T18:22:42.930Z,63.05
2023-08-02T18:25:12.640Z,63.16
2023-08-02T18:27:40.390Z,63.18
2023-08-02T18:30:09.268Z,63.38
2023-08-02T18:32:37.217Z,63.62
2023-08-02T18:35:08.317Z,63.69
2023-08-02T18:37:37.505Z,63.85
2023-08-02T18:40:06.246Z,63.87
2023-08-02T18:42:34.044Z,64.22
2023-08-02T18:45:01.837Z,64.05
2023-08-02T18:47:29.677Z,64.12
2023-08-02T18:49:57.450Z,64.21
2023-08-02T18:52:27.928Z,64.25
2023-08-02T18:54:57.170Z,64.51
2023-08-02T18:57:25.035Z,64.35
2023-08-02T18:59:52.811Z,64.74
2023-08-02T19:02:20.772Z,64.53
2023-08-02T19:04:48.614Z,64.79
2023-08-02T19:07:16.500Z,64.64
2023-08-02T19:09:44.260Z,64.70
2023-08-02T19:12:16.568Z,64.65
2023-08-02T19:14:47.665Z,64.63
2023-08-02T19:17:16.008Z,64.52
2023-08-02T19:19:44.491Z,64.60
2023-08-02T19:22:14.367Z,64.71
2023-08-02T19:24:43.969Z,64.50
2023-08-02T19:27:14.361Z,64.59
2023-08-02T19:29:42.360Z,64.87
2023-08-02T19:32:16.482Z,64.89
2023-08-02T19:34:49.809Z,65.04
2023-08-02T19:37:20.097Z,64.70
2023-08-02T19:39:47.999Z,64.86
2023-08-02T19:42:17.228Z,64.72
2023-08-02T19:44:49.695Z,64.79
2023-08-02T19:47:17.581Z,64.84
2023-08-02T19:49:45.365Z,64.93
2023-08-02T19:52:13.396Z,64.98
2023-08-02T19:54:41.220Z,64.95
2023-08-02T19:57:12.906Z,64.90
2023-08-02T19:59:42.090Z,64.97
2023-08-02T20:02:20.460Z,65.04
2023-08-02T20:04:48.257Z,65.08
2023-08-02T20:07:16.102Z,64.97
2023-08-02T20:09:51.624Z,64.98
2023-08-02T20:12:19.497Z,65.15
2023-08-02T20:14:50.727Z,65.11
2023-08-02T20:17:18.726Z,65.13
2023-08-02T20:19:47.920Z,65.19
2023-08-02T20:22:16.887Z,65.11
2023-08-02T20:24:47.977Z,65.06
2023-08-02T20:27:16.862Z,65.23
2023-08-02T20:29:44.761Z,65.16
2023-08-02T20:32:19.488Z,65.16
2023-08-02T20:34:48.263Z,65.12
2023-08-02T20:37:16.041Z,65.17
2023-08-02T20:39:45.983Z,65.04
2023-08-02T20:42:14.048Z,65.30
2023-08-02T20:44:44.272Z,65.34
2023-08-02T20:47:16.918Z,65.28
2023-08-02T20:49:46.049Z,65.33
2023-08-02T20:52:13.813Z,65.28
2023-08-02T20:54:44.313Z,65.30
2023-08-02T20:57:15.504Z,65.38
2023-08-02T20:59:43.701Z,65.31
2023-08-02T21:02:19.700Z,65.32
2023-08-02T21:04:50.130Z,65.31
2023-08-02T21:07:18.102Z,65.25
2023-08-02T21:09:45.958Z,65.37
2023-08-02T21:12:14.314Z,65.30
2023-08-02T21:14:42.183Z,65.39
2023-08-02T21:17:18.771Z,65.33
2023-08-02T21:19:47.966Z,65.20
2023-08-02T21:22:15.756Z,65.37
2023-08-02T21:24:46.120Z,65.26
2023-08-02T21:27:14.562Z,65.28
2023-08-02T21:29:47.539Z,65.22
2023-08-02T21:32:15.900Z,65.41
2023-08-02T21:34:44.957Z,65.25
2023-08-02T21:37:14.299Z,65.30
2023-08-02T21:39:45.774Z,65.44
2023-08-02T21:42:23.749Z,65.16
2023-08-02T21:44:51.557Z,65.41
2023-08-02T21:47:19.544Z,65.37
2023-08-02T21:49:51.795Z,65.31
2023-08-02T21:52:20.953Z,65.23
2023-08-02T21:54:48.763Z,65.41
2023-08-02T21:57:16.540Z,65.46
2023-08-02T21:59:44.300Z,65.27
2023-08-02T22:02:12.402Z,65.34
2023-08-02T22:04:46.660Z,65.27
2023-08-02T22:07:16.033Z,65.20
2023-08-02T22:09:45.627Z,65.42
2023-08-02T22:12:13.910Z,65.26
2023-08-02T22:14:41.819Z,65.05
2023-08-02T22:17:10.390Z,65.27
2023-08-02T22:19:38.108Z,65.04
2023-08-02T22:22:06.272Z,65.29
2023-08-02T22:24:34.197Z,65.14
2023-08-02T22:27:03.314Z,65.11
2023-08-02T22:29:31.125Z,64.99
2023-08-02T22:31:58.918Z,64.99
2023-08-02T22:34:28.562Z,65.13
2023-08-02T22:36:56.355Z,65.19
2023-08-02T22:39:24.103Z,65.49
2023-08-02T22:41:51.983Z,65.49
2023-08-02T22:44:21.125Z,65.38
2023-08-02T22:46:50.028Z,65.49
2023-08-02T22:51:48.462Z,65.42
2023-08-02T22:54:16.326Z,65.35
2023-08-02T22:56:44.382Z,65.48
2023-08-02T22:59:18.320Z,65.75
2023-08-02T23:01:50.433Z,65.72
2023-08-02T23:04:18.824Z,65.62
2023-08-02T23:06:50.035Z,65.60
2023-08-02T23:09:18.353Z,65.69
2023-08-02T23:11:46.192Z,65.71
2023-08-02T23:14:15.100Z,65.81
2023-08-02T23:16:42.827Z,65.96
2023-08-02T23:19:17.878Z,65.96
2023-08-02T23:21:46.611Z,65.85
2023-08-02T23:24:16.401Z,66.16
2023-08-02T23:26:44.214Z,66.16
2023-08-02T23:29:13.481Z,66.15
2023-08-02T23:31:42.214Z,66.17
2023-08-02T23:34:10.189Z,66.13
2023-08-02T23:36:39.307Z,66.30
2023-08-02T23:39:08.544Z,66.31
2023-08-02T23:41:36.327Z,66.40
2023-08-02T23:44:04.136Z,66.51
2023-08-02T23:46:32.194Z,66.78
2023-08-02T23:49:00.600Z,67.00
2023-08-02T23:51:28.345Z,66.26
2023-08-02T23:54:01.006Z,66.45
2023-08-02T23:56:28.788Z,66.54
2023-08-02T23:58:56.555Z,67.15
